Time;durP1;ratioP1;P1;durP2;ratioP2;P2;SDS_P1;SDS_P2;PMS_P1;PMS_P2;Temp;Humidity;BMP_temperature;BMP_pressure;BME280_temperature;BME280_humidity;BME280_pressure;Samples;Min_cycle;Max_cycle;Signal;HPM_P1;HPM_P2
2022/08/26 00:00:32;;;;;;;2.40;2.28;;;;;;;19.93;73.31;95610.72;5057899;28;20029;-64
2022/08/26 00:02:58;;;;;;;3.08;2.30;;;;;;;19.92;72.83;95605.59;5066634;28;20039;-64
2022/08/26 00:05:24;;;;;;;2.83;2.70;;;;;;;19.93;73.74;95608.06;5071745;28;20081;-65
2022/08/26 00:07:50;;;;;;;2.60;2.40;;;;;;;19.88;74.30;95602.47;5065585;28;20032;-65
2022/08/26 00:10:16;;;;;;;3.53;2.78;;;;;;;19.90;73.81;95608.44;5064760;28;20492;-64
2022/08/26 00:12:41;;;;;;;2.53;2.42;;;;;;;19.85;74.03;95605.53;5069783;28;20028;-64
2022/08/26 00:15:09;;;;;;;4.50;2.60;;;;;;;19.81;74.83;95602.44;5071391;28;20040;-64
2022/08/26 00:17:35;;;;;;;2.63;2.42;;;;;;;19.83;73.56;95604.94;5060346;28;20040;-64
2022/08/26 00:20:01;;;;;;;2.60;2.50;;;;;;;19.85;74.39;95605.53;5062310;28;20496;-64
2022/08/26 00:22:27;;;;;;;4.30;2.50;;;;;;;19.86;73.46;95599.19;5061375;28;20538;-64
2022/08/26 00:24:52;;;;;;;4.15;2.65;;;;;;;19.87;73.08;95608.84;5067739;28;20029;-65
2022/08/26 00:27:17;;;;;;;2.97;2.42;;;;;;;19.90;73.29;95609.25;5068707;28;20094;-65
2022/08/26 00:29:43;;;;;;;2.75;2.50;;;;;;;19.95;72.61;95600.66;5067595;28;20024;-64
2022/08/26 00:32:08;;;;;;;3.20;2.70;;;;;;;19.96;73.06;95604.97;5069994;28;20456;-64
2022/08/26 00:34:34;;;;;;;4.03;2.17;;;;;;;19.94;73.04;95603.53;5072341;28;20025;-64
2022/08/26 00:36:59;;;;;;;2.67;2.50;;;;;;;19.88;74.09;95597.13;5066553;28;20039;-64
2022/08/26 00:39:25;;;;;;;2.58;2.47;;;;;;;19.86;73.49;95600.00;5066214;28;20032;-64
2022/08/26 00:41:50;;;;;;;2.53;2.40;;;;;;;19.84;73.82;95595.88;5069271;28;20027;-64
2022/08/26 00:44:17;;;;;;;2.83;2.67;;;;;;;19.83;73.11;95595.06;5066343;28;20044;-64
2022/08/26 00:46:51;;;;;;;2.80;2.60;;;;;;;19.81;73.69;95599.78;5066127;28;20021;-64
2022/08/26 00:49:24;;;;;;;2.55;2.45;;;;;;;19.81;72.79;95601.63;5063452;28;20119;-64
2022/08/26 00:51:53;;;;;;;3.22;3.00;;;;;;;19.82;72.66;95606.75;5072143;28;20027;-64
2022/08/26 00:54:22;;;;;;;3.00;2.80;;;;;;;19.82;72.80;95608.63;5066160;28;20377;-64
2022/08/26 00:56:56;;;;;;;3.28;2.90;;;;;;;19.80;74.02;95600.00;5072956;28;20444;-64
2022/08/26 00:59:23;;;;;;;3.42;2.67;;;;;;;19.82;72.80;95608.63;5068566;28;20033;-64
2022/08/26 01:01:50;;;;;;;2.60;2.40;;;;;;;19.81;72.98;95612.31;5071043;28;20074;-64
2022/08/26 01:04:19;;;;;;;5.05;2.83;;;;;;;19.84;72.91;95617.25;5066444;28;20490;-64
2022/08/26 01:06:46;;;;;;;4.50;2.75;;;;;;;19.86;72.55;95620.53;5066497;28;20638;-64
2022/08/26 01:09:12;;;;;;;2.38;2.20;;;;;;;19.81;72.93;95615.81;5068677;28;20039;-64
2022/08/26 01:11:37;;;;;;;3.45;2.40;;;;;;;19.74;73.21;95615.78;5068752;28;20024;-64
2022/08/26 01:14:04;;;;;;;4.82;2.38;;;;;;;19.69;73.48;95620.91;5070593;28;20059;-65
2022/08/26 01:16:31;;;;;;;3.17;2.60;;;;;;;19.72;73.30;95625.03;5068171;28;20136;-64
2022/08/26 01:19:05;;;;;;;2.58;2.42;;;;;;;19.77;73.69;95617.25;5070699;28;20078;-64
2022/08/26 01:21:39;;;;;;;3.55;3.25;;;;;;;19.76;73.53;95624.41;5063847;28;20146;-64
2022/08/26 01:24:06;;;;;;;4.15;3.75;;;;;;;19.74;73.82;95618.44;5073181;28;20032;-64
2022/08/26 01:26:34;;;;;;;4.05;3.75;;;;;;;19.73;73.58;95619.47;5068629;28;20100;-64
2022/08/26 01:29:03;;;;;;;4.90;3.42;;;;;;;19.71;73.12;95621.53;5072019;28;20140;-64
2022/08/26 01:31:34;;;;;;;3.22;2.90;;;;;;;19.67;73.67;95620.28;5070832;28;20028;-64
2022/08/26 01:34:09;;;;;;;2.40;2.30;;;;;;;19.66;73.76;95618.66;5072272;28;20040;-64
2022/08/26 01:36:37;;;;;;;3.13;2.60;;;;;;;19.65;73.42;95610.81;5069845;28;20052;-64
2022/08/26 01:39:04;;;;;;;2.90;2.45;;;;;;;19.57;74.29;95615.34;5068285;28;20492;-64
2022/08/26 01:41:31;;;;;;;2.70;2.50;;;;;;;19.54;74.37;95618.41;5068570;28;20567;-64
2022/08/26 01:43:56;;;;;;;2.55;2.35;;;;;;;19.52;73.79;95624.94;5069351;28;20028;-64
2022/08/26 01:46:23;;;;;;;2.80;2.60;;;;;;;19.51;75.23;95632.16;5076209;28;20039;-64
2022/08/26 01:48:51;;;;;;;2.55;2.35;;;;;;;19.44;75.06;95629.47;5065019;28;20032;-64
2022/08/26 01:51:19;;;;;;;3.72;2.50;;;;;;;19.44;73.79;95623.28;5072213;28;20496;-65
2022/08/26 01:53:45;;;;;;;2.55;2.35;;;;;;;19.44;73.77;95632.13;5068127;28;20036;-65
2022/08/26 01:56:11;;;;;;;2.53;2.42;;;;;;;19.39;75.03;95631.91;5070118;28;20033;-64
2022/08/26 01:58:42;;;;;;;4.20;2.47;;;;;;;19.36;74.94;95632.31;5070708;28;20042;-65
2022/08/26 02:01:07;;;;;;;2.22;2.13;;;;;;;19.32;74.60;95623.88;5074573;28;20036;-65
2022/08/26 02:03:37;;;;;;;2.42;2.22;;;;;;;19.33;74.00;95624.66;5066731;28;20412;-64
2022/08/26 02:06:05;;;;;;;5.00;2.58;;;;;;;19.32;74.11;95631.03;5074344;28;20072;-64
2022/08/26 02:08:41;;;;;;;2.65;2.45;;;;;;;19.24;75.56;95620.53;5071026;28;20052;-64
2022/08/26 02:11:07;;;;;;;2.90;2.70;;;;;;;19.17;75.33;95632.00;5067315;28;20031;-64
2022/08/26 02:13:36;;;;;;;2.33;2.22;;;;;;;19.13;75.50;95630.75;5067732;28;20029;-64
2022/08/26 02:16:02;;;;;;;2.53;2.33;;;;;;;19.11;74.90;95627.44;5070186;28;20032;-64
2022/08/26 02:18:31;;;;;;;2.95;2.63;;;;;;;19.11;74.78;95627.44;5067475;28;20404;-64
2022/08/26 02:20:57;;;;;;;3.53;3.05;;;;;;;19.12;74.88;95634.44;5067522;28;20047;-64
2022/08/26 02:23:23;;;;;;;5.05;2.90;;;;;;;19.06;75.97;95629.88;5068401;28;20032;-66
2022/08/26 02:25:55;;;;;;;6.38;2.63;;;;;;;18.99;76.34;95635.19;5071141;28;20033;-65
2022/08/26 02:28:20;;;;;;;2.97;2.78;;;;;;;18.96;76.73;95632.06;5067560;28;20036;-64
2022/08/26 02:30:46;;;;;;;7.43;2.70;;;;;;;18.84;77.65;95632.59;5069702;28;20037;-64
2022/08/26 02:33:12;;;;;;;2.67;2.55;;;;;;;18.80;76.95;95631.34;5068824;28;20138;-64
2022/08/26 02:35:38;;;;;;;2.97;2.78;;;;;;;18.82;76.59;95621.31;5065411;28;20052;-67
2022/08/26 02:38:06;;;;;;;3.13;2.50;;;;;;;18.80;76.83;95617.22;5073671;28;20021;-64
2022/08/26 02:40:35;;;;;;;2.83;2.70;;;;;;;18.76;78.33;95606.91;5068724;28;20031;-64
2022/08/26 02:43:00;;;;;;;3.00;2.70;;;;;;;18.74;77.94;95616.13;5069276;28;20029;-64
2022/08/26 02:45:27;;;;;;;4.18;2.90;;;;;;;18.75;76.77;95620.44;5070391;28;20085;-64
2022/08/26 02:47:54;;;;;;;3.20;2.70;;;;;;;18.78;76.28;95614.72;5071038;28;20028;-64
2022/08/26 02:50:21;;;;;;;3.35;2.63;;;;;;;18.82;76.16;95617.84;5071475;28;20078;-64
2022/08/26 02:52:47;;;;;;;3.85;2.50;;;;;;;18.80;76.34;95611.88;5066504;28;20115;-67
2022/08/26 02:55:13;;;;;;;3.38;2.50;;;;;;;18.71;76.12;95624.53;5075256;28;20104;-65
2022/08/26 02:57:38;;;;;;;2.90;2.70;;;;;;;18.64;76.75;95618.31;5064684;28;20115;-64
2022/08/26 03:00:07;;;;;;;2.85;2.65;;;;;;;18.59;77.68;95614.38;5069023;28;20507;-65
2022/08/26 03:02:33;;;;;;;3.50;3.20;;;;;;;18.59;77.74;95609.06;5068148;28;20052;-64
2022/08/26 03:04:58;;;;;;;3.03;2.83;;;;;;;18.57;77.90;95605.75;5074108;28;20024;-65
2022/08/26 03:07:24;;;;;;;3.58;3.28;;;;;;;18.55;78.66;95606.97;5064913;28;20033;-64
2022/08/26 03:09:49;;;;;;;2.63;2.53;;;;;;;18.48;79.34;95609.59;5070088;28;20026;-65
2022/08/26 03:12:14;;;;;;;3.97;2.72;;;;;;;18.40;79.14;95605.22;5071691;28;20012;-64
2022/08/26 03:14:40;;;;;;;5.82;2.47;;;;;;;18.47;78.54;95595.44;5071926;28;20048;-64
2022/08/26 03:17:05;;;;;;;2.95;2.78;;;;;;;18.48;78.33;95593.63;5065992;28;20028;-64
2022/08/26 03:19:31;;;;;;;3.00;2.80;;;;;;;18.51;79.01;95600.38;5067483;28;20024;-64
2022/08/26 03:21:57;;;;;;;2.95;2.72;;;;;;;18.56;78.21;95604.13;5062571;28;20059;-64
2022/08/26 03:24:22;;;;;;;3.97;2.67;;;;;;;18.60;78.41;95597.38;5066288;28;20062;-65
2022/08/26 03:26:48;;;;;;;3.30;3.10;;;;;;;18.61;78.18;95601.69;5066127;28;20029;-67
2022/08/26 03:31:59;;;;;;;2.83;2.63;;;;;;;18.66;77.96;95598.44;5075262;28;20120;-64
2022/08/26 03:34:24;;;;;;;3.10;2.90;;;;;;;18.83;76.22;95600.81;5066857;28;20047;-64
2022/08/26 03:36:50;;;;;;;6.10;2.72;;;;;;;18.80;75.46;95599.34;5065761;28;20504;-65
2022/08/26 03:39:15;;;;;;;4.45;2.95;;;;;;;18.80;76.25;95604.69;5070576;28;20016;-65
2022/08/26 03:41:43;;;;;;;6.20;2.97;;;;;;;18.78;75.80;95608.56;5067408;28;20028;-67
2022/08/26 03:44:08;;;;;;;6.32;3.00;;;;;;;18.75;75.80;95599.13;5063462;28;20032;-67
2022/08/26 03:46:34;;;;;;;5.78;2.70;;;;;;;18.74;75.87;95605.47;5068888;28;20020;-67
2022/08/26 03:49:01;;;;;;;3.10;2.83;;;;;;;18.73;77.22;95615.28;5067731;28;20086;-66
2022/08/26 03:51:27;;;;;;;4.72;3.13;;;;;;;18.72;76.87;95608.31;5063102;28;20024;-67
2022/08/26 03:53:53;;;;;;;5.63;3.00;;;;;;;18.68;76.82;95612.41;5071344;28;20020;-66
2022/08/26 03:56:18;;;;;;;3.00;2.80;;;;;;;18.67;76.83;95612.59;5063618;28;20507;-66
2022/08/26 03:58:44;;;;;;;7.50;2.83;;;;;;;18.67;77.21;95607.25;5066900;28;20033;-66
2022/08/26 04:01:11;;;;;;;3.92;2.72;;;;;;;18.70;77.08;95606.88;5068061;28;20036;-66
2022/08/26 04:06:20;;;;;;;2.78;2.67;;;;;;;18.78;76.50;95606.72;5070560;28;20070;-66
2022/08/26 04:08:46;;;;;;;5.43;2.67;;;;;;;18.78;78.42;95605.88;5066387;28;20464;-66
2022/08/26 04:11:20;;;;;;;3.05;2.83;;;;;;;18.76;77.60;95611.44;5068077;28;20051;-66
2022/08/26 04:13:47;;;;;;;3.03;2.83;;;;;;;18.76;77.31;95606.09;5068059;28;20028;-66
2022/08/26 04:16:13;;;;;;;7.70;2.85;;;;;;;18.75;77.49;95601.78;5070495;28;20403;-66
2022/08/26 04:18:39;;;;;;;3.00;2.80;;;;;;;18.72;77.69;95608.31;5072433;28;20085;-66
2022/08/26 04:21:06;;;;;;;4.18;2.70;;;;;;;18.71;77.72;95608.53;5063638;28;20040;-66
2022/08/26 04:23:32;;;;;;;2.90;2.70;;;;;;;18.71;77.77;95612.00;5067223;28;20028;-66
2022/08/26 04:26:00;;;;;;;3.42;2.75;;;;;;;18.73;77.59;95614.50;5062204;28;20029;-66
2022/08/26 04:28:25;;;;;;;4.28;3.00;;;;;;;18.72;78.04;95610.19;5067441;28;20047;-66
2022/08/26 04:30:50;;;;;;;3.15;2.95;;;;;;;18.68;78.23;95616.88;5069509;28;20480;-66
2022/08/26 04:33:16;;;;;;;3.15;2.80;;;;;;;18.63;78.14;95611.31;5069647;28;20024;-66
2022/08/26 04:35:42;;;;;;;2.90;2.63;;;;;;;18.64;78.30;95621.81;5076511;28;20581;-66
2022/08/26 04:38:08;;;;;;;2.97;2.58;;;;;;;18.64;78.43;95616.47;5068228;28;20031;-66
2022/08/26 04:40:33;;;;;;;5.57;3.10;;;;;;;18.65;78.00;95619.94;5064296;28;20475;-66
2022/08/26 04:42:59;;;;;;;2.65;2.45;;;;;;;18.71;78.37;95629.88;5069847;28;20063;-66
2022/08/26 04:45:24;;;;;;;3.28;2.92;;;;;;;18.67;78.20;95620.59;5068270;28;20036;-66
2022/08/26 04:47:57;;;;;;;2.95;2.75;;;;;;;18.66;77.44;95625.09;5065757;28;20056;-66
2022/08/26 04:50:24;;;;;;;4.07;2.80;;;;;;;18.63;78.33;95627.31;5069234;28;20043;-66
2022/08/26 04:52:50;;;;;;;3.05;2.30;;;;;;;18.64;77.89;95623.63;5064995;28;20025;-66
2022/08/26 04:55:15;;;;;;;2.60;2.50;;;;;;;18.65;79.06;95622.63;5068507;28;20047;-66
2022/08/26 04:57:40;;;;;;;4.25;2.97;;;;;;;18.65;78.46;95622.63;5062550;28;20032;-66
2022/08/26 05:00:10;;;;;;;3.17;2.97;;;;;;;18.67;78.15;95625.91;5077301;28;20024;-66
2022/08/26 05:02:36;;;;;;;3.22;2.92;;;;;;;18.69;78.45;95624.72;5068898;28;20060;-66
2022/08/26 05:05:01;;;;;;;4.47;3.20;;;;;;;18.70;78.45;95617.56;5074777;28;20070;-66
2022/08/26 05:07:27;;;;;;;3.40;3.17;;;;;;;18.71;77.85;95625.34;5070902;28;20025;-66
2022/08/26 05:09:52;;;;;;;5.20;3.35;;;;;;;18.68;80.35;95622.22;5072153;28;20021;-66
2022/08/26 05:12:18;;;;;;;3.22;2.97;;;;;;;18.63;79.62;95622.00;5066095;28;20024;-66
2022/08/26 05:14:44;;;;;;;3.35;2.47;;;;;;;18.59;79.84;95626.91;5067414;28;20479;-66
2022/08/26 05:17:09;;;;;;;3.28;2.60;;;;;;;18.52;79.39;95629.53;5076730;28;20190;-66
2022/08/26 05:19:35;;;;;;;3.17;2.97;;;;;;;18.43;79.61;95625.31;5072314;28;20407;-66
2022/08/26 05:22:01;;;;;;;3.72;3.00;;;;;;;18.42;79.23;95629.00;5068365;28;20545;-66
2022/08/26 05:24:26;;;;;;;7.45;3.20;;;;;;;18.41;79.89;95630.88;5069065;28;20020;-66
2022/08/26 05:26:51;;;;;;;2.78;2.58;;;;;;;18.45;80.03;95636.63;5070216;28;20078;-66
2022/08/26 05:29:17;;;;;;;3.88;2.80;;;;;;;18.46;80.17;95638.28;5072792;28;20075;-66
2022/08/26 05:31:42;;;;;;;3.45;3.15;;;;;;;18.49;80.32;95631.72;5066205;28;20205;-66
2022/08/26 05:34:08;;;;;;;3.42;3.10;;;;;;;18.52;80.64;95642.84;5066825;28;20491;-67
2022/08/26 05:36:35;;;;;;;3.03;2.83;;;;;;;18.61;79.83;95631.00;5076261;28;20047;-66
2022/08/26 05:39:01;;;;;;;3.25;2.60;;;;;;;18.66;81.52;95637.59;5071928;28;20020;-67
2022/08/26 05:41:33;;;;;;;3.30;3.00;;;;;;;18.72;80.58;95644.84;5073289;28;20364;-66
2022/08/26 05:44:00;;;;;;;3.17;2.97;;;;;;;18.82;79.74;95645.31;5069424;28;20027;-67
2022/08/26 05:46:26;;;;;;;2.97;2.78;;;;;;;18.88;79.48;95644.50;5071954;28;20051;-67
2022/08/26 05:48:55;;;;;;;8.82;3.17;;;;;;;18.94;80.56;95650.13;5067942;28;20399;-66
2022/08/26 05:51:21;;;;;;;4.85;2.78;;;;;;;18.97;79.58;95644.38;5072450;28;20031;-67
2022/08/26 05:53:47;;;;;;;3.00;2.80;;;;;;;19.06;79.06;95653.91;5069679;28;20028;-66
2022/08/26 05:56:12;;;;;;;3.95;2.90;;;;;;;19.23;77.53;95656.25;5070821;28;20073;-66
2022/08/26 05:58:39;;;;;;;2.75;2.65;;;;;;;19.31;77.33;95650.75;5071188;28;20024;-66
2022/08/26 06:01:13;;;;;;;3.20;2.90;;;;;;;19.37;77.27;95649.13;5072470;28;20024;-67
2022/08/26 06:03:41;;;;;;;2.90;2.70;;;;;;;19.45;77.14;95647.13;5071389;28;20024;-67
2022/08/26 06:06:19;;;;;;;4.35;2.90;;;;;;;19.57;76.34;95655.38;5067854;28;20307;-66
2022/08/26 06:08:45;;;;;;;3.33;2.90;;;;;;;19.68;76.36;95648.63;5068858;28;20086;-66
2022/08/26 06:11:14;;;;;;;3.25;2.97;;;;;;;19.75;77.34;95654.81;5071657;28;20033;-66
2022/08/26 06:13:40;;;;;;;5.28;3.13;;;;;;;19.81;77.65;95666.56;5070910;28;20031;-66
2022/08/26 06:16:09;;;;;;;2.63;2.47;;;;;;;19.89;77.96;95658.38;5071690;28;20143;-66
2022/08/26 06:18:37;;;;;;;3.00;2.80;;;;;;;19.99;77.92;95662.53;5066702;28;20021;-67
2022/08/26 06:21:20;;;;;;;3.55;2.92;;;;;;;20.08;78.14;95663.97;5064087;28;20032;-67
2022/08/26 06:26:31;;;;;;;3.92;2.95;;;;;;;20.26;76.41;95671.44;5064138;28;20186;-66
2022/08/26 06:28:57;;;;;;;6.75;2.88;;;;;;;20.36;75.34;95664.84;5068382;28;20587;-66
2022/08/26 06:31:24;;;;;;;3.75;2.85;;;;;;;20.40;75.98;95672.25;5074024;28;20483;-66
2022/08/26 06:33:50;;;;;;;3.45;2.80;;;;;;;20.63;75.46;95670.19;5066804;28;20033;-66
2022/08/26 06:36:25;;;;;;;3.63;3.03;;;;;;;20.78;73.75;95678.84;5070950;28;20096;-67
2022/08/26 06:38:51;;;;;;;;;;;;;;;20.90;72.09;95681.75;5065744;28;20024;-64
2022/08/26 06:41:18;;;;;;;3.58;2.95;;;;;;;20.95;71.98;95683.81;5073568;28;19916;-64
2022/08/26 06:43:44;;;;;;;4.05;2.60;;;;;;;21.02;72.94;95682.78;5069448;28;20051;-66
2022/08/26 06:46:12;;;;;;;3.90;3.00;;;;;;;21.08;73.37;95683.78;5068966;28;20036;-67
2022/08/26 06:48:38;;;;;;;3.78;2.90;;;;;;;21.08;73.68;95689.13;5065120;28;20040;-67
2022/08/26 06:51:19;;;;;;;4.43;2.80;;;;;;;21.09;73.49;95688.09;5072083;28;20040;-64
2022/08/26 06:53:47;;;;;;;4.30;2.60;;;;;;;21.06;73.96;95685.03;5066803;28;20077;-66
2022/08/26 06:56:14;;;;;;;3.17;2.58;;;;;;;21.02;73.77;95685.44;5067789;28;20032;-66
2022/08/26 06:58:40;;;;;;;6.40;3.38;;;;;;;21.00;73.63;95692.03;5067478;28;20432;-65
2022/08/26 07:01:18;;;;;;;3.10;2.80;;;;;;;21.05;74.27;95689.53;5068270;28;20032;-65
2022/08/26 07:03:45;;;;;;;3.15;2.88;;;;;;;21.01;74.14;95699.84;5067875;28;20031;-65
2022/08/26 07:06:10;;;;;;;4.50;2.97;;;;;;;21.03;73.98;95704.97;5065335;28;20650;-65
2022/08/26 07:08:36;;;;;;;4.20;2.90;;;;;;;21.10;71.59;95692.41;5069015;28;20106;-64
2022/08/26 07:11:09;;;;;;;3.25;3.03;;;;;;;21.07;71.26;95700.84;5067223;28;20074;-67
2022/08/26 07:13:37;;;;;;;3.05;2.53;;;;;;;21.34;68.08;95700.84;5070199;28;20048;-65
2022/08/26 07:16:15;;;;;;;3.05;2.70;;;;;;;21.25;66.53;95707.41;5071406;28;20078;-64
2022/08/26 07:18:41;;;;;;;3.80;2.60;;;;;;;21.29;66.51;95700.63;5066589;28;20047;-64
2022/08/26 07:21:09;;;;;;;3.13;2.88;;;;;;;21.50;65.80;95712.09;5068401;28;20578;-66
2022/08/26 07:23:35;;;;;;;3.92;2.72;;;;;;;21.49;65.26;95705.94;5082875;28;20039;-64
2022/08/26 07:26:10;;;;;;;3.20;2.90;;;;;;;21.52;65.63;95704.66;5068946;28;20029;-67
2022/08/26 07:28:37;;;;;;;5.10;3.13;;;;;;;21.54;68.73;95703.44;5067601;28;20032;-67
2022/08/26 07:31:07;;;;;;;3.10;2.90;;;;;;;21.63;67.04;95701.34;5070600;28;20036;-67
2022/08/26 07:33:33;;;;;;;7.40;3.17;;;;;;;21.75;68.30;95704.22;5070528;28;20023;-64
2022/08/26 07:35:59;;;;;;;6.25;3.05;;;;;;;21.89;68.81;95703.16;5066713;28;20543;-65
2022/08/26 07:38:24;;;;;;;5.78;3.03;;;;;;;21.97;67.38;95699.38;5068383;28;20067;-67
2022/08/26 07:40:50;;;;;;;4.53;3.05;;;;;;;22.06;66.37;95699.94;5070655;28;20027;-65
2022/08/26 07:43:15;;;;;;;7.32;3.33;;;;;;;22.65;65.54;95705.19;5065344;28;20028;-67
2022/08/26 07:45:41;;;;;;;2.83;2.60;;;;;;;23.35;63.26;95698.00;5063984;28;20040;-65
2022/08/26 07:48:06;;;;;;;6.57;3.00;;;;;;;23.90;61.65;95693.63;5068330;28;20032;-65
2022/08/26 07:50:32;;;;;;;7.03;2.80;;;;;;;24.30;60.67;95694.97;5071300;28;20024;-64
2022/08/26 07:52:57;;;;;;;4.88;2.63;;;;;;;24.77;58.76;95694.31;5069566;28;20025;-66
2022/08/26 07:55:23;;;;;;;4.68;3.17;;;;;;;25.13;57.43;95697.00;5064206;28;20032;-67
2022/08/26 07:57:48;;;;;;;6.78;2.83;;;;;;;25.55;56.53;95696.91;5065303;28;20040;-66
2022/08/26 08:00:15;;;;;;;6.38;2.38;;;;;;;26.12;54.73;95697.22;5072144;28;20024;-67
2022/08/26 08:02:43;;;;;;;8.38;2.22;;;;;;;26.48;53.85;95705.16;5067556;28;20054;-68
2022/08/26 08:05:10;;;;;;;2.40;2.10;;;;;;;26.64;51.23;95714.34;5068356;28;20084;-67
2022/08/26 08:07:37;;;;;;;11.77;3.85;;;;;;;26.68;52.22;95700.13;5067582;28;20033;-68
2022/08/26 08:10:04;;;;;;;33.70;10.23;;;;;;;26.36;50.80;95697.13;5064549;28;20043;-69
2022/08/26 08:12:29;;;;;;;3.50;2.72;;;;;;;25.73;53.32;95701.31;5068781;28;20024;-66
2022/08/26 08:14:55;;;;;;;5.25;2.22;;;;;;;24.82;55.25;95697.13;5065477;28;20036;-68
2022/08/26 08:17:20;;;;;;;4.53;2.45;;;;;;;24.37;56.92;95700.25;5069586;28;20102;-68
2022/08/26 08:19:46;;;;;;;2.47;2.25;;;;;;;24.22;56.75;95688.06;5069204;28;20039;-68
2022/08/26 08:22:11;;;;;;;2.72;2.53;;;;;;;24.76;56.75;95687.28;5063414;28;20038;-67
2022/08/26 08:24:37;;;;;;;2.45;2.25;;;;;;;25.63;54.09;95689.50;5062468;28;20024;-68
2022/08/26 08:27:02;;;;;;;2.60;2.33;;;;;;;25.73;53.37;95695.91;5063215;28;20447;-69
2022/08/26 08:29:28;;;;;;;3.28;2.42;;;;;;;25.46;53.59;95685.63;5074118;28;20028;-67
2022/08/26 08:31:58;;;;;;;4.63;2.40;;;;;;;25.15;54.76;95693.06;5070206;28;20043;-65
2022/08/26 08:34:25;;;;;;;6.22;2.45;;;;;;;25.14;54.81;95693.28;5070128;28;20032;-67
2022/08/26 08:36:51;;;;;;;5.47;2.50;;;;;;;25.80;53.46;95698.47;5065172;28;20056;-66
2022/08/26 08:39:17;;;;;;;3.45;2.15;;;;;;;26.40;51.50;95692.88;5069568;28;20036;-67
2022/08/26 08:42:40;;;;;;;2.15;2.05;;;;;;;26.28;50.95;95692.94;5072714;28;20437;-67
2022/08/26 08:45:14;;;;;;;2.25;2.00;;;;;;;27.00;49.49;95686.09;5065483;28;20036;-67
2022/08/26 08:47:57;;;;;;;6.03;2.53;;;;;;;27.37;47.10;95684.72;5065876;28;20064;-65
2022/08/26 08:50:31;;;;;;;3.15;2.30;;;;;;;27.15;47.71;95690.91;5064356;28;20032;-66
2022/08/26 08:52:59;;;;;;;3.03;2.20;;;;;;;27.27;48.50;95687.25;5061719;28;20036;-66
2022/08/26 08:55:30;;;;;;;3.60;2.38;;;;;;;27.59;48.95;95686.66;5059116;28;20816;-66
2022/08/26 08:58:06;;;;;;;6.45;2.15;;;;;;;27.86;47.49;95680.50;5068372;28;20484;-66
2022/08/26 09:00:43;;;;;;;5.78;2.30;;;;;;;27.91;47.46;95683.25;5066399;28;20055;-67
2022/08/26 09:03:23;;;;;;;3.25;2.13;;;;;;;28.33;46.41;95681.00;5069196;28;20111;-66
2022/08/26 09:05:51;;;;;;;3.22;2.05;;;;;;;28.24;47.13;95673.38;5062482;28;20041;-66
2022/08/26 09:08:23;;;;;;;7.78;2.10;;;;;;;28.05;47.27;95677.47;5060702;28;20177;-67
2022/08/26 09:10:56;;;;;;;3.10;2.30;;;;;;;27.79;47.19;95677.97;5069360;28;20056;-67
2022/08/26 09:13:22;;;;;;;2.95;2.22;;;;;;;27.85;46.60;95684.28;5068203;28;20024;-66
2022/08/26 09:16:07;;;;;;;5.38;2.33;;;;;;;27.37;47.42;95684.72;5064273;28;20634;-65
2022/08/26 09:19:02;;;;;;;5.20;2.75;;;;;;;26.56;50.92;95681.28;5067826;28;20029;-66
2022/08/26 09:21:29;;;;;;;3.72;2.63;;;;;;;26.09;51.66;95676.13;5064453;28;20031;-67
2022/08/26 09:23:55;;;;;;;3.90;2.60;;;;;;;25.53;53.08;95673.94;5071093;28;20062;-66
2022/08/26 09:26:25;;;;;;;3.00;2.08;;;;;;;25.53;53.14;95673.94;5065020;28;20029;-66
2022/08/26 09:28:54;;;;;;;2.35;2.15;;;;;;;25.51;54.36;95676.88;5071232;28;20020;-65
2022/08/26 09:31:27;;;;;;;2.58;2.38;;;;;;;25.66;53.26;95675.56;5071589;28;20032;-64
2022/08/26 09:34:12;;;;;;;5.05;2.33;;;;;;;25.61;52.72;95676.28;5071576;28;20047;-65
2022/08/26 09:36:45;;;;;;;2.42;2.22;;;;;;;25.67;52.49;95669.91;5057667;28;20048;-64
2022/08/26 09:39:22;;;;;;;5.30;2.47;;;;;;;25.40;53.40;95669.59;5064063;28;20035;-65
2022/08/26 09:42:07;;;;;;;2.40;2.20;;;;;;;25.18;53.50;95679.09;5065126;28;20408;-65
2022/08/26 09:44:49;;;;;;;2.38;2.17;;;;;;;25.14;54.53;95687.88;5069858;28;20127;-66
2022/08/26 09:47:21;;;;;;;2.00;1.90;;;;;;;24.94;55.25;95678.28;5064768;28;20032;-66
2022/08/26 09:49:56;;;;;;;5.38;2.20;;;;;;;25.06;53.14;95680.97;5065480;28;20029;-66
2022/08/26 09:52:25;;;;;;;3.17;1.95;;;;;;;24.70;54.19;95677.41;5066099;28;20021;-66
2022/08/26 09:55:20;;;;;;;4.00;2.05;;;;;;;24.45;53.61;95687.31;5068610;28;20177;-66
2022/08/26 09:57:54;;;;;;;1.90;1.80;;;;;;;24.25;52.83;95681.41;5066008;28;20044;-66
2022/08/26 10:00:37;;;;;;;3.97;2.33;;;;;;;24.07;54.07;95680.41;5066111;28;20039;-66
2022/08/26 10:03:05;;;;;;;2.22;2.00;;;;;;;24.24;54.73;95685.97;5072674;28;20395;-66
2022/08/26 10:06:01;;;;;;;4.05;2.13;;;;;;;23.85;56.23;95688.91;5064118;28;20029;-66
2022/08/26 10:08:37;;;;;;;5.60;2.28;;;;;;;23.46;57.61;95689.19;5067320;28;20028;-66
2022/08/26 10:11:10;;;;;;;2.75;2.50;;;;;;;23.35;59.26;95695.31;5069412;28;20037;-66
2022/08/26 10:13:42;;;;;;;4.45;2.17;;;;;;;23.22;60.49;95693.56;5066072;28;20060;-65
2022/08/26 10:16:28;;;;;;;4.10;2.10;;;;;;;23.07;60.34;95701.13;5066719;28;20032;-66
2022/08/26 10:19:08;;;;;;;2.33;2.13;;;;;;;23.06;61.89;95697.59;5065607;28;20043;-66
2022/08/26 10:21:58;;;;;;;2.85;2.33;;;;;;;23.06;60.90;95702.97;5067824;28;20025;-66
2022/08/26 10:24:36;;;;;;;2.50;2.33;;;;;;;23.08;60.51;95692.84;5062877;28;20035;-66
2022/08/26 10:27:43;;;;;;;2.13;1.98;;;;;;;23.16;61.67;95697.94;5064192;28;20476;-66
2022/08/26 10:30:14;;;;;;;3.60;2.80;;;;;;;23.38;59.95;95696.72;5059676;28;20044;-66
2022/08/26 10:32:59;;;;;;;3.05;2.40;;;;;;;23.72;58.51;95689.91;5061582;28;20028;-66
2022/08/26 10:35:25;;;;;;;2.15;2.05;;;;;;;24.10;57.76;95689.88;5077225;28;20037;-65
2022/08/26 10:38:02;;;;;;;2.22;2.13;;;;;;;24.46;56.14;95683.56;5069699;28;20107;-65
2022/08/26 10:40:47;;;;;;;2.05;1.95;;;;;;;24.97;53.74;95682.38;5064111;28;20024;-66
2022/08/26 10:43:26;;;;;;;2.08;1.90;;;;;;;25.79;51.70;95686.06;5067791;28;20056;-64
2022/08/26 10:45:59;;;;;;;4.60;2.00;;;;;;;26.32;50.59;95680.63;5066681;28;20040;-65
2022/08/26 10:48:34;;;;;;;2.15;2.05;;;;;;;26.22;48.65;95678.56;5071469;28;20029;-65
2022/08/26 10:51:01;;;;;;;;;;;;;;;25.66;49.86;95672.88;5063312;28;20120;-65
2022/08/26 10:53:40;;;;;;;2.80;1.80;;;;;;;25.25;51.65;95672.78;5068760;28;19923;-65
2022/08/26 10:56:32;;;;;;;2.17;2.00;;;;;;;24.97;51.92;95671.63;5067734;28;20552;-66
2022/08/26 10:59:21;;;;;;;2.13;1.90;;;;;;;24.76;51.73;95668.44;5068737;28;20097;-65
2022/08/26 11:01:59;;;;;;;3.70;1.92;;;;;;;24.53;51.30;95667.31;5070597;28;20083;-65
2022/08/26 11:04:43;;;;;;;2.97;1.92;;;;;;;24.35;52.38;95664.72;5065625;28;20062;-65
2022/08/26 11:07:39;;;;;;;2.38;1.85;;;;;;;24.71;51.05;95661.03;5067259;28;20487;-65
2022/08/26 11:10:16;;;;;;;;;;;;;;;25.21;50.00;95650.06;5066364;28;20028;-65
2022/08/26 11:12:41;;;;;;;2.63;2.10;;;;;;;25.42;50.00;95654.00;5071490;28;19962;-66
2022/08/26 11:15:12;;;;;;;1.90;1.80;;;;;;;25.60;49.37;95650.38;5067315;28;20032;-66
2022/08/26 11:17:54;;;;;;;1.95;1.85;;;;;;;25.55;49.07;95650.28;5067666;28;20042;-66
2022/08/26 11:20:22;;;;;;;2.00;1.80;;;;;;;25.58;49.38;95644.41;5074350;28;20016;-65
2022/08/26 11:22:52;;;;;;;2.05;1.90;;;;;;;25.80;48.45;95649.16;5066117;28;20551;-66
2022/08/26 11:25:19;;;;;;;2.85;2.13;;;;;;;26.49;46.83;95642.84;5067722;28;20028;-66
2022/08/26 11:27:48;;;;;;;2.15;2.03;;;;;;;26.84;45.64;95639.06;5068272;28;20031;-66
2022/08/26 11:30:18;;;;;;;3.72;2.20;;;;;;;27.62;43.84;95645.59;5069012;28;20531;-65
2022/08/26 11:32:48;;;;;;;2.42;2.00;;;;;;;28.36;41.96;95629.91;5059315;28;20028;-68
2022/08/26 11:35:16;;;;;;;2.40;1.90;;;;;;;28.76;40.34;95627.78;5064478;28;20048;-67
2022/08/26 11:37:59;;;;;;;2.38;2.17;;;;;;;28.92;40.78;95636.06;5060562;28;20059;-65
2022/08/26 11:40:34;;;;;;;2.90;1.75;;;;;;;28.62;41.74;95626.56;5053883;28;20024;-65
2022/08/26 11:43:05;;;;;;;1.73;1.63;;;;;;;28.66;41.86;95625.81;5061479;28;20032;-65
2022/08/26 11:45:37;;;;;;;1.90;1.80;;;;;;;28.92;41.27;95623.31;5062540;28;20028;-63
2022/08/26 11:48:29;;;;;;;3.08;1.80;;;;;;;28.81;40.71;95618.91;5064388;28;20035;-63
2022/08/26 11:51:11;;;;;;;4.05;1.85;;;;;;;29.14;40.13;95617.75;5061091;28;20085;-66
2022/08/26 11:53:43;;;;;;;2.72;1.70;;;;;;;29.00;40.84;95627.44;5064456;28;20058;-66